Terminal Aerodrome Forecast
Issued by NWS Albuquerque, NM

Home | Current Version | Previous Version | Text Only | Print | Product List | Glossary On
Versions: 1 2 3 4 5 6 7 8 9 10 11 12 13 14 15 16 17 18 19 20
000
FTUS45 KABQ 011138
TAFABQ
TAF
KABQ 011138Z 0112/0212 VRB06KT P6SM VCSH FEW040 BKN080
     FM011700 22006KT P6SM SCT070 SCT120
     FM012100 22010KT P6SM VCTS SCT060CB BKN100
     FM020200 11008KT P6SM FEW050 BKN100=

USA.gov is the U.S. government's official web portal to all federal, state and local government web resources and services.